首页
METAR-TAF:

METAR-TAF

机场 :

巴林国际机场

巴林, 巴林

纬度: 26-16N, 经度: 050-39E, 海拔: 2米

当前天气观测

该预报发布于28分钟前的11:00 UTC
风速19节,风向西北
温度 27°C
湿度 66%
气压 1017 hPa
能见度10公里或以上
多云层高于2500英尺

METAR: OBBI 171100Z 32019KT 9999 BKN025 27/20 Q1017 NOSIG

时间: 14:28 (11:28 UTC)

预报

该预报发布于6小时和28分钟前的05:00 UTC
预报有效从17日的 06点(UTC)到 18日的 12点(UTC)
风速15节,风向北转西北,有时为25节阵风
能見度: 8000
散云层高于2500英尺

TAF: OBBI 170500Z 1706/1812 33015G25KT 8000 SCT025

超过4000个机场的气象观测和天气预报(METAR&TAF报告)。

可查询的气象台以黄色和红色小点在地图上表示。

将鼠标移到小点上方,可查看气象台名称。

然后点击查看天气观测和预报。

如需切换地图:点击带黑十字的绿色按钮放大地图;点击带横线的绿色按钮缩小地图;或者点击绿色箭头查看邻近地区的地图。


METAR-TAF: